Aviation Digital Data Service (ADDS)

Output produced by TAFs form (2045 UTC 04 July 2015)
found at http://www.aviationweather.gov/adds/tafs/
 
KPSF 041835Z 0419/0518 00000KT P6SM VCSH SCT015 OVC080 
     TEMPO 0419/0420 6SM -SHRA BKN015 OVC080 
     FM042000 21004KT P6SM VCSH BKN030 
     FM050000 00000KT P6SM SCT030 
     FM050500 00000KT 5SM BR SCT050 
     FM050800 00000KT 2SM BR BKN008 
     FM051200 30005KT P6SM SCT050